Time;durP1;ratioP1;P1;durP2;ratioP2;P2;SDS_P1;SDS_P2;PMS_P1;PMS_P2;Temp;Humidity;BMP_temperature;BMP_pressure;BME280_temperature;BME280_humidity;BME280_pressure;Samples;Min_cycle;Max_cycle;Signal;HPM_P1;HPM_P2
2022/01/24 00:02:23;;;;;;;28.67;12.32;;;;;;;;;;6278241;22;20015;-82
2022/01/24 00:04:50;;;;;;;33.58;13.30;;;;;;;;;;6278812;22;20393;-83
2022/01/24 00:07:19;;;;;;;26.45;10.88;;;;;;;;;;6275046;22;20396;-83
2022/01/24 00:09:45;;;;;;;26.00;10.07;;;;;;;;;;6275379;22;20390;-82
2022/01/24 00:12:31;;;;;;;34.72;13.68;;;;;;;;;;6276477;22;20003;-82
2022/01/24 00:28:09;;;;;;;36.88;15.27;;;;;;;;;;6274609;22;20010;-83
2022/01/24 00:30:34;;;;;;;31.63;13.80;;;;;;;;;;6275481;22;20039;-83
2022/01/24 00:33:00;;;;;;;30.98;13.65;;;;;;;;;;6276275;22;19992;-83
2022/01/24 00:35:25;;;;;;;32.22;12.43;;;;;;;;;;6275664;22;20003;-82
2022/01/24 00:37:51;;;;;;;31.02;11.48;;;;;;;;;;6276477;22;20434;-83
2022/01/24 00:40:16;;;;;;;28.23;11.90;;;;;;;;;;6274519;22;20419;-83
2022/01/24 00:45:41;;;;;;;37.70;13.23;;;;;;;;;;6276503;22;20410;-83
2022/01/24 00:56:14;;;;;;;33.63;14.00;;;;;;;;;;6276097;22;20015;-82
2022/01/24 00:58:39;;;;;;;43.38;15.45;;;;;;;;;;6275482;22;19996;-83
2022/01/24 01:01:05;;;;;;;42.42;17.25;;;;;;;;;;6274790;22;20008;-83
2022/01/24 01:03:30;;;;;;;42.90;16.40;;;;;;;;;;6275320;22;20003;-83
2022/01/24 01:06:05;;;;;;;33.30;14.25;;;;;;;;;;6273354;22;20008;-83
2022/01/24 01:19:28;;;;;;;38.40;15.15;;;;;;;;;;6275277;22;20102;-83
2022/01/24 01:21:53;;;;;;;36.00;15.68;;;;;;;;;;6274652;22;20000;-83
2022/01/24 01:24:19;;;;;;;43.35;15.85;;;;;;;;;;6274501;22;20003;-83
2022/01/24 01:26:51;;;;;;;33.42;15.65;;;;;;;;;;6274304;22;20381;-83
2022/01/24 01:29:22;;;;;;;39.17;16.13;;;;;;;;;;6275735;22;20452;-83
2022/01/24 01:32:00;;;;;;;37.83;16.08;;;;;;;;;;6275362;22;20431;-83
2022/01/24 01:34:56;;;;;;;39.40;14.57;;;;;;;;;;6273647;22;20003;-84
2022/01/24 01:54:01;;;;;;;43.38;15.80;;;;;;;;;;6273982;22;20011;-83
2022/01/24 01:56:27;;;;;;;34.67;14.20;;;;;;;;;;6252288;22;20004;-83
2022/01/24 01:58:52;;;;;;;30.70;12.70;;;;;;;;;;6248160;22;20447;-83
2022/01/24 02:01:18;;;;;;;46.22;14.75;;;;;;;;;;6275277;22;20065;-84
2022/01/24 02:03:43;;;;;;;38.90;15.00;;;;;;;;;;6222458;22;20011;-83
2022/01/24 02:06:10;;;;;;;29.35;10.57;;;;;;;;;;6275416;22;19999;-83
2022/01/24 02:08:37;;;;;;;33.67;12.32;;;;;;;;;;6273892;22;20000;-84
2022/01/24 02:11:02;;;;;;;33.80;15.20;;;;;;;;;;6273572;22;20082;-83
2022/01/24 02:13:29;;;;;;;23.83;10.40;;;;;;;;;;6273801;22;20453;-84
2022/01/24 02:18:43;;;;;;;27.83;11.75;;;;;;;;;;6273600;22;19999;-83
2022/01/24 02:22:05;;;;;;;30.67;11.75;;;;;;;;;;6275769;22;20342;-84
2022/01/24 02:24:33;;;;;;;22.73;10.35;;;;;;;;;;6273649;22;20003;-83
2022/01/24 02:26:59;;;;;;;27.02;10.77;;;;;;;;;;6273417;22;20077;-83
2022/01/24 02:29:44;;;;;;;31.27;10.73;;;;;;;;;;6275004;22;20450;-84
2022/01/24 02:32:11;;;;;;;30.80;11.60;;;;;;;;;;6273754;22;20050;-83
2022/01/24 02:34:39;;;;;;;23.33;10.13;;;;;;;;;;6275276;22;19996;-83
2022/01/24 02:37:09;;;;;;;27.27;10.45;;;;;;;;;;6275368;22;20008;-83
2022/01/24 02:50:24;;;;;;;28.85;13.20;;;;;;;;;;6273725;22;20084;-84
2022/01/24 02:52:50;;;;;;;25.70;10.63;;;;;;;;;;6250537;22;20015;-83
2022/01/24 02:55:15;;;;;;;39.58;14.98;;;;;;;;;;6275299;22;20008;-83
2022/01/24 02:57:41;;;;;;;29.20;11.77;;;;;;;;;;6275359;22;20000;-84
2022/01/24 03:00:07;;;;;;;30.58;12.55;;;;;;;;;;6275746;22;20015;-84
2022/01/24 03:02:33;;;;;;;26.27;11.38;;;;;;;;;;6277211;22;20006;-83
2022/01/24 03:04:58;;;;;;;29.50;11.82;;;;;;;;;;6277123;22;20082;-83
2022/01/24 03:07:25;;;;;;;31.92;12.43;;;;;;;;;;6277018;22;20000;-82
2022/01/24 03:09:54;;;;;;;35.65;12.70;;;;;;;;;;6275156;22;20445;-83
2022/01/24 03:12:39;;;;;;;44.97;21.38;;;;;;;;;;6277316;22;20003;-82
2022/01/24 03:15:05;;;;;;;36.47;13.82;;;;;;;;;;6275063;22;20007;-82
2022/01/24 03:17:31;;;;;;;34.78;11.98;;;;;;;;;;6276772;22;20008;-82
2022/01/24 03:19:56;;;;;;;30.25;13.63;;;;;;;;;;6276506;22;20023;-82
2022/01/24 03:22:22;;;;;;;38.58;13.93;;;;;;;;;;6276978;22;20000;-82
2022/01/24 03:24:49;;;;;;;32.17;13.70;;;;;;;;;;6277601;22;20008;-82
2022/01/24 03:27:14;;;;;;;44.35;13.85;;;;;;;;;;6276863;22;20101;-81
2022/01/24 03:29:40;;;;;;;34.20;14.27;;;;;;;;;;6276644;22;20427;-81
2022/01/24 03:32:05;;;;;;;30.48;12.20;;;;;;;;;;6279029;22;20427;-82
2022/01/24 03:34:31;;;;;;;41.78;18.70;;;;;;;;;;6279016;22;20004;-82
2022/01/24 03:36:56;;;;;;;39.80;16.55;;;;;;;;;;6278805;22;20026;-81
2022/01/24 03:39:22;;;;;;;34.28;14.45;;;;;;;;;;6275367;22;20011;-81
2022/01/24 03:41:47;;;;;;;42.97;16.48;;;;;;;;;;6276890;22;20003;-81
2022/01/24 03:44:14;;;;;;;45.38;21.00;;;;;;;;;;6275042;22;20366;-81
2022/01/24 03:47:02;;;;;;;35.22;14.88;;;;;;;;;;6275594;22;20042;-81
2022/01/24 03:49:46;;;;;;;44.13;17.73;;;;;;;;;;6276836;22;20005;-82
2022/01/24 03:52:18;;;;;;;35.70;16.05;;;;;;;;;;6276902;22;20004;-82
2022/01/24 03:54:43;;;;;;;31.08;12.57;;;;;;;;;;6275543;22;20484;-81
2022/01/24 03:57:12;;;;;;;39.88;15.45;;;;;;;;;;6276440;22;20000;-82
2022/01/24 03:59:38;;;;;;;35.47;14.27;;;;;;;;;;6274710;22;20004;-81
2022/01/24 04:02:03;;;;;;;37.92;14.20;;;;;;;;;;6275442;22;19996;-80
2022/01/24 04:04:29;;;;;;;42.47;16.08;;;;;;;;;;6276271;22;20082;-81
2022/01/24 04:06:54;;;;;;;44.85;17.00;;;;;;;;;;6275119;22;20065;-81
2022/01/24 04:09:20;;;;;;;48.00;19.20;;;;;;;;;;6249612;22;20027;-81
2022/01/24 04:11:50;;;;;;;39.20;15.35;;;;;;;;;;6274333;22;20000;-81
2022/01/24 04:14:28;;;;;;;38.58;16.35;;;;;;;;;;6276498;22;20115;-81
2022/01/24 04:22:34;;;;;;;47.67;17.25;;;;;;;;;;6275387;22;20065;-81
2022/01/24 04:25:02;;;;;;;43.13;17.15;;;;;;;;;;6275029;22;20328;-81
2022/01/24 04:27:28;;;;;;;39.38;16.27;;;;;;;;;;6275611;22;20006;-81
2022/01/24 04:29:58;;;;;;;53.78;21.02;;;;;;;;;;6275946;22;20003;-81
2022/01/24 04:32:23;;;;;;;48.63;18.42;;;;;;;;;;6276411;22;20004;-81
2022/01/24 04:34:49;;;;;;;40.60;17.55;;;;;;;;;;6249064;22;20029;-82
2022/01/24 04:37:15;;;;;;;44.15;16.98;;;;;;;;;;6276442;22;20054;-81
2022/01/24 04:39:42;;;;;;;45.33;18.10;;;;;;;;;;6275607;22;20003;-82
2022/01/24 04:42:13;;;;;;;47.75;18.73;;;;;;;;;;6274092;22;20053;-81
2022/01/24 04:47:36;;;;;;;67.57;24.35;;;;;;;;;;6275874;22;20007;-81
2022/01/24 04:55:16;;;;;;;52.40;19.15;;;;;;;;;;6276028;22;20557;-81
2022/01/24 04:57:42;;;;;;;52.55;19.55;;;;;;;;;;6275904;22;20000;-82
2022/01/24 05:00:09;;;;;;;53.53;19.77;;;;;;;;;;6275683;22;20038;-82
2022/01/24 05:02:35;;;;;;;59.65;21.35;;;;;;;;;;6273923;22;20000;-82
2022/01/24 05:05:00;;;;;;;36.58;13.80;;;;;;;;;;6275765;22;20046;-83
2022/01/24 05:07:26;;;;;;;59.25;23.00;;;;;;;;;;6275484;22;20561;-82
2022/01/24 05:10:04;;;;;;;49.92;19.90;;;;;;;;;;6275604;22;20022;-81
2022/01/24 05:23:40;;;;;;;54.58;19.85;;;;;;;;;;6275516;22;20061;-82
2022/01/24 05:26:06;;;;;;;51.15;19.05;;;;;;;;;;6275342;22;20000;-82
2022/01/24 05:28:33;;;;;;;52.20;19.60;;;;;;;;;;6274152;22;20098;-82
2022/01/24 05:30:58;;;;;;;47.55;18.65;;;;;;;;;;6273899;22;20007;-82
2022/01/24 05:33:24;;;;;;;49.83;18.88;;;;;;;;;;6275557;22;20010;-82
2022/01/24 05:35:50;;;;;;;59.97;23.65;;;;;;;;;;6275647;22;19999;-84
2022/01/24 05:38:17;;;;;;;54.55;19.48;;;;;;;;;;6249102;22;20011;-84
2022/01/24 05:40:43;;;;;;;61.00;21.70;;;;;;;;;;6273784;22;20446;-83
2022/01/24 05:43:09;;;;;;;85.93;27.65;;;;;;;;;;6274531;22;20000;-84
2022/01/24 05:45:35;;;;;;;93.22;34.00;;;;;;;;;;6274816;22;20091;-82
2022/01/24 05:48:09;;;;;;;69.50;26.05;;;;;;;;;;6273973;22;20378;-83
2022/01/24 05:51:28;;;;;;;64.57;24.73;;;;;;;;;;6255389;22;20000;-81
2022/01/24 05:53:56;;;;;;;53.80;19.80;;;;;;;;;;6265782;22;20621;-84
2022/01/24 05:56:25;;;;;;;56.67;21.52;;;;;;;;;;6249144;22;20026;-86
2022/01/24 05:59:33;;;;;;;;;;;;;;;;;;;;;
2022/01/24 06:05:39;;;;;;;53.28;20.13;;;;;;;;;;6198155;22;20039;-84
2022/01/24 06:08:08;;;;;;;60.85;22.77;;;;;;;;;;6280823;22;19995;-85
2022/01/24 06:11:03;;;;;;;63.58;20.50;;;;;;;;;;6284752;22;20015;-83
2022/01/24 06:13:32;;;;;;;55.58;21.95;;;;;;;;;;6250873;22;20008;-83
2022/01/24 06:15:58;;;;;;;55.30;20.30;;;;;;;;;;6232553;22;20001;-84
2022/01/24 06:22:05;;;;;;;57.63;21.20;;;;;;;;;;6216872;23;20013;-83
2022/01/24 06:25:12;;;;;;;;;;;;;;;;;;;;;
2022/01/24 06:27:47;;;;;;;59.75;20.25;;;;;;;;;;6207819;23;20039;-87
2022/01/24 06:31:00;;;;;;;56.65;20.60;;;;;;;;;;6191366;23;20352;-89
2022/01/24 06:33:55;;;;;;;60.83;22.27;;;;;;;;;;6224114;22;20016;-84
2022/01/24 06:36:58;;;;;;;64.78;24.73;;;;;;;;;;6256462;22;20015;-85
2022/01/24 06:53:20;;;;;;;72.95;26.30;;;;;;;;;;6294773;22;20019;-87
2022/01/24 06:55:48;;;;;;;145.95;46.55;;;;;;;;;;6265734;22;20014;-86
2022/01/24 07:01:10;;;;;;;172.48;50.03;;;;;;;;;;6278774;22;20019;-87
2022/01/24 07:03:43;;;;;;;161.10;49.45;;;;;;;;;;6293534;22;20007;-87
2022/01/24 07:20:35;;;;;;;141.20;47.83;;;;;;;;;;6216285;23;20031;-82
2022/01/24 07:23:04;;;;;;;129.15;38.95;;;;;;;;;;6179549;23;20078;-80
2022/01/24 07:28:03;;;;;;;63.30;22.98;;;;;;;;;;6278406;22;20351;-83
2022/01/24 07:30:29;;;;;;;83.43;33.00;;;;;;;;;;6244559;22;20080;-80
2022/01/24 07:32:54;;;;;;;56.55;21.27;;;;;;;;;;6276380;22;20007;-79
2022/01/24 07:35:26;;;;;;;68.72;24.15;;;;;;;;;;6275316;22;20006;-80
2022/01/24 07:47:47;;;;;;;61.33;21.85;;;;;;;;;;6282942;22;20051;-81
2022/01/24 07:50:29;;;;;;;57.55;20.13;;;;;;;;;;6206974;22;20004;-81
2022/01/24 07:53:00;;;;;;;62.03;23.10;;;;;;;;;;6289072;22;20005;-79
2022/01/24 07:55:26;;;;;;;61.90;22.48;;;;;;;;;;6289608;22;20568;-81
2022/01/24 07:57:56;;;;;;;68.32;24.42;;;;;;;;;;6288578;22;20102;-81
2022/01/24 08:00:21;;;;;;;72.10;24.35;;;;;;;;;;6250502;22;20007;-80
2022/01/24 08:02:50;;;;;;;74.20;24.00;;;;;;;;;;6250938;22;20030;-78
2022/01/24 08:05:37;;;;;;;67.75;24.02;;;;;;;;;;6245021;22;20399;-79
2022/01/24 08:08:03;;;;;;;74.15;23.92;;;;;;;;;;6271353;22;20011;-79
2022/01/24 08:10:29;;;;;;;68.78;23.42;;;;;;;;;;6250416;22;20015;-79
2022/01/24 08:12:55;;;;;;;71.28;25.92;;;;;;;;;;6242407;22;20016;-80
2022/01/24 08:15:24;;;;;;;72.95;25.48;;;;;;;;;;6268174;22;20007;-81
2022/01/24 08:17:50;;;;;;;80.68;30.50;;;;;;;;;;6217637;22;20010;-81
2022/01/24 08:20:16;;;;;;;84.05;29.50;;;;;;;;;;6269065;22;20004;-82
2022/01/24 08:22:44;;;;;;;88.45;31.55;;;;;;;;;;6247903;22;20476;-80
2022/01/24 08:25:10;;;;;;;92.05;31.40;;;;;;;;;;6221702;22;20031;-79
2022/01/24 08:27:36;;;;;;;81.28;26.58;;;;;;;;;;6271176;22;20420;-78
2022/01/24 08:30:07;;;;;;;62.38;21.92;;;;;;;;;;6245626;22;20004;-81
2022/01/24 08:32:32;;;;;;;67.40;22.85;;;;;;;;;;6270827;22;20011;-80
2022/01/24 08:34:58;;;;;;;64.45;21.88;;;;;;;;;;6249780;22;20004;-81
2022/01/24 08:37:24;;;;;;;77.20;27.25;;;;;;;;;;6248857;22;20074;-82
2022/01/24 08:39:54;;;;;;;65.35;22.10;;;;;;;;;;6246622;22;20011;-80
2022/01/24 08:42:32;;;;;;;68.28;24.23;;;;;;;;;;6218739;22;20351;-80
2022/01/24 08:47:24;;;;;;;76.38;26.45;;;;;;;;;;6266924;22;20007;-80
2022/01/24 08:49:50;;;;;;;72.60;25.50;;;;;;;;;;6265657;22;20008;-80
2022/01/24 08:52:16;;;;;;;60.45;22.15;;;;;;;;;;6267629;22;20071;-80
2022/01/24 08:54:41;;;;;;;77.43;24.67;;;;;;;;;;6242329;22;20228;-81
2022/01/24 08:57:07;;;;;;;67.57;22.92;;;;;;;;;;6270006;22;20220;-80
2022/01/24 08:59:33;;;;;;;55.80;20.55;;;;;;;;;;6239076;22;20110;-80
2022/01/24 09:01:59;;;;;;;75.95;23.98;;;;;;;;;;6268625;22;19996;-80
2022/01/24 09:04:49;;;;;;;66.00;23.88;;;;;;;;;;6242661;22;20011;-81
2022/01/24 09:07:16;;;;;;;75.60;26.77;;;;;;;;;;6270659;22;20008;-80
2022/01/24 09:09:45;;;;;;;97.97;32.05;;;;;;;;;;6270824;22;20003;-79
2022/01/24 09:12:12;;;;;;;93.45;31.95;;;;;;;;;;6270920;22;20629;-81
2022/01/24 09:14:47;;;;;;;86.97;28.17;;;;;;;;;;6244007;22;20003;-80
2022/01/24 09:17:20;;;;;;;78.78;27.58;;;;;;;;;;6244086;22;20025;-80
2022/01/24 09:19:45;;;;;;;66.95;23.38;;;;;;;;;;6244944;22;20008;-77
2022/01/24 09:22:13;;;;;;;86.20;28.30;;;;;;;;;;6273036;22;20010;-79
2022/01/24 09:24:39;;;;;;;68.88;23.05;;;;;;;;;;6220815;22;20004;-77
2022/01/24 09:27:04;;;;;;;63.15;21.15;;;;;;;;;;6244965;22;20086;-80
2022/01/24 09:29:30;;;;;;;75.78;26.52;;;;;;;;;;6244581;22;20004;-79
2022/01/24 09:31:55;;;;;;;109.43;40.50;;;;;;;;;;6271670;22;20007;-78
2022/01/24 09:34:21;;;;;;;57.22;21.13;;;;;;;;;;6247412;22;20330;-78
2022/01/24 09:37:01;;;;;;;49.63;18.90;;;;;;;;;;6274029;22;20035;-79
2022/01/24 09:39:34;;;;;;;51.50;20.77;;;;;;;;;;6275296;22;19999;-82
2022/01/24 09:41:59;;;;;;;65.55;22.48;;;;;;;;;;6275561;22;20049;-79
2022/01/24 09:44:25;;;;;;;67.95;23.13;;;;;;;;;;6254039;22;20008;-80
2022/01/24 09:46:51;;;;;;;76.22;26.73;;;;;;;;;;6201739;22;20442;-78
2022/01/24 09:49:20;;;;;;;83.43;29.73;;;;;;;;;;6254587;22;20019;-79
2022/01/24 09:51:45;;;;;;;107.32;38.03;;;;;;;;;;6274350;22;20081;-83
2022/01/24 09:59:21;;;;;;;103.35;35.40;;;;;;;;;;6268399;22;20019;-77
2022/01/24 10:01:47;;;;;;;117.00;39.08;;;;;;;;;;6277447;22;20078;-81
2022/01/24 10:04:18;;;;;;;125.93;43.78;;;;;;;;;;6277583;22;20000;-80
2022/01/24 10:07:01;;;;;;;123.68;41.58;;;;;;;;;;6274876;22;20015;-78
2022/01/24 10:09:59;;;;;;;114.72;38.88;;;;;;;;;;6249723;22;20026;-84
2022/01/24 10:18:50;;;;;;;83.53;30.27;;;;;;;;;;6193337;22;20012;-83
2022/01/24 10:24:43;;;;;;;;;;;;;;;;;;;;;
2022/01/24 10:27:17;;;;;;;86.43;28.17;;;;;;;;;;6263592;22;20042;-81
2022/01/24 10:29:49;;;;;;;90.90;33.80;;;;;;;;;;6275505;22;20007;-81
2022/01/24 10:32:52;;;;;;;191.60;71.57;;;;;;;;;;6278734;22;20078;-82
2022/01/24 10:35:44;;;;;;;96.47;32.30;;;;;;;;;;6274314;22;20000;-82
2022/01/24 10:38:32;;;;;;;86.22;30.00;;;;;;;;;;6278838;22;20011;-83
2022/01/24 10:43:50;;;;;;;71.70;25.90;;;;;;;;;;6233225;22;20008;-81
2022/01/24 10:46:28;;;;;;;67.55;25.60;;;;;;;;;;6258203;22;20006;-81
2022/01/24 10:52:20;;;;;;;69.57;24.63;;;;;;;;;;6241781;22;20024;-81
2022/01/24 10:54:49;;;;;;;;;;;;;;;;;;6224502;22;20004;-81
2022/01/24 10:57:28;;;;;;;57.60;19.77;;;;;;;;;;6249947;22;19957;-82
2022/01/24 11:03:34;;;;;;;60.08;22.08;;;;;;;;;;6251538;22;20026;-80
2022/01/24 11:12:49;;;;;;;78.13;29.00;;;;;;;;;;6155694;23;20021;-84
2022/01/24 11:15:19;;;;;;;83.47;27.95;;;;;;;;;;6164163;22;20389;-84
2022/01/24 11:18:13;;;;;;;;;;;;;;;;;;;;;
2022/01/24 11:23:39;;;;;;;65.63;23.73;;;;;;;;;;6268249;22;20020;-85
2022/01/24 11:26:11;;;;;;;56.92;21.80;;;;;;;;;;6245042;22;20433;-84
2022/01/24 11:28:37;;;;;;;54.30;19.30;;;;;;;;;;6222013;22;20562;-84
2022/01/24 11:37:33;;;;;;;70.65;24.30;;;;;;;;;;6242109;22;20308;-83
2022/01/24 11:39:59;;;;;;;81.18;28.60;;;;;;;;;;6238086;22;20426;-84
2022/01/24 11:42:47;;;;;;;;;;;;;;;;;;;;;
2022/01/24 11:48:36;;;;;;;69.03;25.90;;;;;;;;;;6066695;23;20037;-82
2022/01/24 11:51:07;;;;;;;74.43;26.63;;;;;;;;;;6162878;23;20009;-83
2022/01/24 11:56:28;;;;;;;97.80;32.67;;;;;;;;;;6267191;22;20019;-84
2022/01/24 11:59:22;;;;;;;53.90;18.60;;;;;;;;;;6288776;22;20004;-84
2022/01/24 12:01:54;;;;;;;55.83;19.15;;;;;;;;;;6250446;22;20453;-84
2022/01/24 12:07:55;;;;;;;48.88;18.23;;;;;;;;;;6278292;22;20354;-83
2022/01/24 12:10:21;;;;;;;50.83;19.17;;;;;;;;;;6224829;22;20038;-83
2022/01/24 12:12:59;;;;;;;58.35;21.75;;;;;;;;;;6276855;22;20015;-84
2022/01/24 12:15:37;;;;;;;50.15;20.33;;;;;;;;;;6227315;22;19999;-83
2022/01/24 12:18:16;;;;;;;48.95;18.70;;;;;;;;;;6247494;22;20004;-83
2022/01/24 12:20:42;;;;;;;49.53;18.90;;;;;;;;;;6248446;22;20469;-83
2022/01/24 12:23:18;;;;;;;55.05;21.88;;;;;;;;;;6274233;22;20004;-84
2022/01/24 12:26:02;;;;;;;53.60;20.00;;;;;;;;;;6275692;22;20000;-84
2022/01/24 12:28:29;;;;;;;55.53;20.25;;;;;;;;;;6223454;22;20090;-83
2022/01/24 12:31:02;;;;;;;52.17;18.35;;;;;;;;;;6247836;22;19995;-84
2022/01/24 12:33:39;;;;;;;49.33;18.38;;;;;;;;;;6275853;22;20334;-83
2022/01/24 12:36:06;;;;;;;54.08;20.13;;;;;;;;;;6249716;22;20061;-83
2022/01/24 12:38:52;;;;;;;55.70;22.52;;;;;;;;;;6249062;22;20003;-83
2022/01/24 12:41:24;;;;;;;73.88;25.50;;;;;;;;;;6275839;22;20034;-83
2022/01/24 12:46:18;;;;;;;68.53;25.17;;;;;;;;;;6200533;22;20015;-83
2022/01/24 12:46:41;;;;;;;94.13;32.55;;;;;;;;;;6253355;22;20004;-84
2022/01/24 12:49:07;;;;;;;64.38;23.15;;;;;;;;;;6224058;22;20073;-83
2022/01/24 12:51:38;;;;;;;43.53;16.83;;;;;;;;;;6223856;22;20316;-83
2022/01/24 12:54:04;;;;;;;59.25;22.40;;;;;;;;;;6223941;22;20031;-83
2022/01/24 12:56:31;;;;;;;53.83;19.55;;;;;;;;;;6248721;22;20005;-84
2022/01/24 12:58:57;;;;;;;78.88;25.55;;;;;;;;;;6223337;22;20414;-84
2022/01/24 13:01:30;;;;;;;50.80;19.80;;;;;;;;;;6223428;22;20007;-83
2022/01/24 13:25:32;;;;;;;43.30;15.45;;;;;;;;;;6254206;22;20452;-82
2022/01/24 13:28:06;;;;;;;38.53;14.27;;;;;;;;;;6248981;22;20015;-82
2022/01/24 13:30:42;;;;;;;43.58;14.98;;;;;;;;;;6245130;22;20120;-81
2022/01/24 13:33:15;;;;;;;55.60;19.38;;;;;;;;;;6276473;22;20442;-85
2022/01/24 13:35:51;;;;;;;50.35;17.92;;;;;;;;;;6275515;22;20023;-83
2022/01/24 13:38:28;;;;;;;45.05;17.67;;;;;;;;;;6247856;22;20025;-84
2022/01/24 13:41:09;;;;;;;51.42;18.83;;;;;;;;;;6248797;22;20008;-83
2022/01/24 13:43:51;;;;;;;73.50;21.30;;;;;;;;;;6249955;22;20316;-83
2022/01/24 13:46:17;;;;;;;60.28;19.65;;;;;;;;;;6227181;22;20007;-83
2022/01/24 13:48:51;;;;;;;49.83;16.42;;;;;;;;;;6280818;22;20500;-82
2022/01/24 13:51:18;;;;;;;40.10;13.27;;;;;;;;;;6248355;22;20350;-83
2022/01/24 13:53:46;;;;;;;45.45;15.98;;;;;;;;;;6275047;22;20006;-82
2022/01/24 13:56:30;;;;;;;33.90;13.60;;;;;;;;;;6248797;22;20003;-83
2022/01/24 13:59:14;;;;;;;28.75;11.77;;;;;;;;;;6249907;22;20053;-83
2022/01/24 14:02:03;;;;;;;33.20;12.23;;;;;;;;;;6275726;22;20415;-83
2022/01/24 14:04:38;;;;;;;34.67;12.88;;;;;;;;;;6251085;22;20003;-82
2022/01/24 14:07:05;;;;;;;38.13;13.13;;;;;;;;;;6250719;22;20482;-81
2022/01/24 14:09:36;;;;;;;34.05;12.75;;;;;;;;;;6248477;22;20018;-82
2022/01/24 14:12:03;;;;;;;93.90;26.92;;;;;;;;;;6275920;22;20000;-82
2022/01/24 14:14:48;;;;;;;99.13;25.08;;;;;;;;;;6248442;22;20038;-82
2022/01/24 14:17:29;;;;;;;77.13;22.98;;;;;;;;;;6252468;22;20423;-83
2022/01/24 14:20:03;;;;;;;92.57;24.80;;;;;;;;;;6239554;22;20046;-83
2022/01/24 14:22:52;;;;;;;66.80;21.58;;;;;;;;;;6224026;22;20003;-83
2022/01/24 14:25:32;;;;;;;47.97;15.85;;;;;;;;;;6275087;22;20004;-83
2022/01/24 14:28:07;;;;;;;35.78;13.65;;;;;;;;;;6276175;22;20004;-82
2022/01/24 14:30:38;;;;;;;44.85;15.68;;;;;;;;;;6274887;22;19996;-83
2022/01/24 14:33:11;;;;;;;45.55;15.70;;;;;;;;;;6248689;22;20016;-83
2022/01/24 14:35:55;;;;;;;37.25;13.43;;;;;;;;;;6274983;22;20343;-82
2022/01/24 14:38:28;;;;;;;44.20;15.82;;;;;;;;;;6247801;22;20007;-82
2022/01/24 14:40:56;;;;;;;44.30;15.55;;;;;;;;;;6247742;22;20394;-83
2022/01/24 14:46:12;;;;;;;61.20;23.27;;;;;;;;;;6251904;22;20082;-82
2022/01/24 14:48:57;;;;;;;361.48;83.57;;;;;;;;;;6250357;22;20061;-81
2022/01/24 14:51:27;;;;;;;201.30;48.45;;;;;;;;;;6275545;22;20007;-82
2022/01/24 14:53:53;;;;;;;302.30;82.35;;;;;;;;;;6277192;22;20000;-82
2022/01/24 14:56:19;;;;;;;199.93;60.72;;;;;;;;;;6250055;22;20000;-83
2022/01/24 14:58:45;;;;;;;125.35;40.30;;;;;;;;;;6224971;22;20078;-83
2022/01/24 15:01:10;;;;;;;114.53;42.72;;;;;;;;;;6249656;22;20004;-82
2022/01/24 15:03:37;;;;;;;143.23;57.58;;;;;;;;;;6225099;22;20071;-83
2022/01/24 15:06:03;;;;;;;74.03;29.30;;;;;;;;;;6250179;22;20004;-82
2022/01/24 15:08:28;;;;;;;66.35;25.98;;;;;;;;;;6226636;22;20007;-83
2022/01/24 15:10:54;;;;;;;73.65;28.27;;;;;;;;;;6276936;22;20426;-83
2022/01/24 15:13:23;;;;;;;68.85;26.38;;;;;;;;;;6277083;22;20030;-83
2022/01/24 15:15:59;;;;;;;76.82;27.17;;;;;;;;;;6277145;22;20012;-83
2022/01/24 15:24:01;;;;;;;69.88;26.10;;;;;;;;;;6276714;22;20361;-82
2022/01/24 15:26:26;;;;;;;72.32;25.02;;;;;;;;;;6277182;22;20008;-82
2022/01/24 15:28:52;;;;;;;89.13;29.88;;;;;;;;;;6250072;22;20003;-83
2022/01/24 15:31:17;;;;;;;72.13;28.23;;;;;;;;;;6276435;22;20031;-82
2022/01/24 15:33:43;;;;;;;92.53;34.05;;;;;;;;;;6276874;22;20011;-83
2022/01/24 15:36:11;;;;;;;136.52;45.50;;;;;;;;;;6249538;22;20426;-83
2022/01/24 15:38:38;;;;;;;123.20;44.30;;;;;;;;;;6199158;22;20086;-82
2022/01/24 15:41:04;;;;;;;110.07;40.70;;;;;;;;;;6276248;22;20010;-83
2022/01/24 15:46:46;;;;;;;147.65;48.90;;;;;;;;;;6253921;22;20098;-82
2022/01/24 15:49:03;;;;;;;150.88;48.38;;;;;;;;;;6255458;22;20015;-82
2022/01/24 15:51:28;;;;;;;230.02;62.20;;;;;;;;;;6249763;22;19992;-83
2022/01/24 15:53:55;;;;;;;251.40;63.90;;;;;;;;;;6249560;22;20004;-82
2022/01/24 15:58:46;;;;;;;346.33;80.15;;;;;;;;;;6276991;22;20083;-82
2022/01/24 16:01:11;;;;;;;353.98;83.07;;;;;;;;;;6276153;22;20004;-83
2022/01/24 16:03:37;;;;;;;315.17;79.95;;;;;;;;;;6223722;22;20010;-82
2022/01/24 16:06:02;;;;;;;310.98;77.50;;;;;;;;;;6276445;22;20006;-83
2022/01/24 16:08:28;;;;;;;307.60;75.32;;;;;;;;;;6223930;22;20007;-83
2022/01/24 16:10:53;;;;;;;316.35;78.03;;;;;;;;;;6223791;22;20008;-82
2022/01/24 16:13:21;;;;;;;249.18;71.95;;;;;;;;;;6249312;22;19999;-81
2022/01/24 16:15:47;;;;;;;251.90;71.82;;;;;;;;;;6249339;22;20414;-82
2022/01/24 16:18:15;;;;;;;281.95;82.55;;;;;;;;;;6248981;22;20023;-82
2022/01/24 16:21:00;;;;;;;259.50;81.80;;;;;;;;;;6276156;22;20431;-82
2022/01/24 16:23:30;;;;;;;264.38;75.00;;;;;;;;;;6253355;22;20007;-82
2022/01/24 16:25:56;;;;;;;232.73;69.32;;;;;;;;;;6250156;22;20411;-83
2022/01/24 16:28:31;;;;;;;181.13;53.85;;;;;;;;;;6278213;22;20006;-82
2022/01/24 16:31:05;;;;;;;195.70;58.20;;;;;;;;;;6199441;22;20048;-83
2022/01/24 16:33:32;;;;;;;209.25;52.15;;;;;;;;;;6223990;22;20007;-83
2022/01/24 16:36:10;;;;;;;236.23;50.35;;;;;;;;;;6249689;22;20004;-83
2022/01/24 16:38:36;;;;;;;191.13;42.97;;;;;;;;;;6249009;22;20418;-83
2022/01/24 16:41:11;;;;;;;285.42;52.13;;;;;;;;;;6249123;22;20004;-82
2022/01/24 16:44:42;;;;;;;212.55;42.65;;;;;;;;;;6202263;22;20004;-82
2022/01/24 16:49:17;;;;;;;127.80;35.72;;;;;;;;;;6254693;22;20065;-83
2022/01/24 16:51:42;;;;;;;153.00;37.65;;;;;;;;;;6199671;22;20342;-83
2022/01/24 16:54:14;;;;;;;121.55;35.35;;;;;;;;;;6276078;22;20031;-83
2022/01/24 16:56:40;;;;;;;149.85;38.63;;;;;;;;;;6250259;22;19999;-82
2022/01/24 16:59:05;;;;;;;133.90;36.35;;;;;;;;;;6223842;22;20086;-82
2022/01/24 17:01:32;;;;;;;151.05;36.55;;;;;;;;;;6223494;22;20003;-82
2022/01/24 17:03:58;;;;;;;220.73;43.92;;;;;;;;;;6223874;22;20014;-81
2022/01/24 17:06:25;;;;;;;222.98;45.42;;;;;;;;;;6275893;22;20440;-82
2022/01/24 17:08:51;;;;;;;221.10;45.28;;;;;;;;;;6251692;22;20011;-82
2022/01/24 17:11:16;;;;;;;250.52;50.92;;;;;;;;;;6249359;22;20074;-81
2022/01/24 17:13:43;;;;;;;354.13;61.08;;;;;;;;;;6248806;22;20003;-83
2022/01/24 17:16:09;;;;;;;301.75;57.03;;;;;;;;;;6198580;22;20003;-82
2022/01/24 17:18:34;;;;;;;235.63;50.35;;;;;;;;;;6223907;22;20010;-82
2022/01/24 17:21:00;;;;;;;233.85;55.33;;;;;;;;;;6197791;22;20015;-82
2022/01/24 17:23:25;;;;;;;302.25;65.07;;;;;;;;;;6275721;22;20004;-81
2022/01/24 17:25:51;;;;;;;276.90;66.13;;;;;;;;;;6275679;22;20004;-83
2022/01/24 17:28:17;;;;;;;304.35;72.07;;;;;;;;;;6254303;22;20004;-82
2022/01/24 17:30:42;;;;;;;252.35;63.30;;;;;;;;;;6224161;22;20004;-83
2022/01/24 17:33:15;;;;;;;215.55;64.45;;;;;;;;;;6197992;22;20030;-83
2022/01/24 17:35:41;;;;;;;193.00;56.10;;;;;;;;;;6225363;22;20004;-81
2022/01/24 17:38:07;;;;;;;194.75;57.35;;;;;;;;;;6248958;22;20418;-82
2022/01/24 17:40:32;;;;;;;237.63;72.47;;;;;;;;;;6250258;22;20098;-82
2022/01/24 17:42:57;;;;;;;205.80;64.53;;;;;;;;;;6278412;22;20003;-82
2022/01/24 17:45:23;;;;;;;197.57;65.20;;;;;;;;;;6278317;22;19995;-84
2022/01/24 17:47:49;;;;;;;200.65;68.18;;;;;;;;;;6281317;22;20065;-82
2022/01/24 17:50:14;;;;;;;200.63;67.30;;;;;;;;;;6229410;22;20330;-82
2022/01/24 17:52:40;;;;;;;215.77;73.18;;;;;;;;;;6224962;22;20004;-83
2022/01/24 17:55:06;;;;;;;212.10;71.93;;;;;;;;;;6225147;22;20397;-82
2022/01/24 17:57:31;;;;;;;193.90;65.65;;;;;;;;;;6236981;22;19983;-84
2022/01/24 17:59:57;;;;;;;182.48;59.97;;;;;;;;;;6273564;22;20003;-83
2022/01/24 18:02:23;;;;;;;184.70;61.47;;;;;;;;;;6249960;22;19992;-82
2022/01/24 18:04:49;;;;;;;223.43;70.15;;;;;;;;;;6297528;22;20086;-83
2022/01/24 18:07:14;;;;;;;258.67;79.13;;;;;;;;;;6275432;22;20020;-83
2022/01/24 18:09:40;;;;;;;213.10;66.22;;;;;;;;;;6250207;22;20027;-83
2022/01/24 18:12:06;;;;;;;195.27;62.95;;;;;;;;;;6251486;22;19983;-82
2022/01/24 18:14:31;;;;;;;323.17;97.80;;;;;;;;;;6275640;22;20007;-82
2022/01/24 18:16:57;;;;;;;348.67;104.40;;;;;;;;;;6269507;22;19999;-82
2022/01/24 18:19:22;;;;;;;482.95;132.18;;;;;;;;;;6265049;22;20069;-81
2022/01/24 18:21:48;;;;;;;433.85;118.75;;;;;;;;;;6227182;22;20003;-82
2022/01/24 18:24:14;;;;;;;379.77;106.40;;;;;;;;;;6285722;22;20000;-82
2022/01/24 18:26:39;;;;;;;410.33;116.82;;;;;;;;;;6265907;22;20002;-82
2022/01/24 18:29:05;;;;;;;566.42;167.23;;;;;;;;;;6202412;22;20008;-81
2022/01/24 18:31:30;;;;;;;459.58;130.75;;;;;;;;;;6278328;22;20010;-82